sensor_id;sensor_type;location;lat;lon;timestamp;P1;durP1;ratioP1;P2;durP2;ratioP2
75612;SDS011;64198;48.556;-2.934;2022-10-23T07:27:59;5.63;;;1.00;;
75612;SDS011;64198;48.556;-2.934;2022-10-23T07:30:29;5.18;;;0.93;;
75612;SDS011;64198;48.556;-2.934;2022-10-23T07:32:55;3.78;;;0.88;;
75612;SDS011;64198;48.556;-2.934;2022-10-23T07:35:21;8.68;;;2.30;;
75612;SDS011;64198;48.556;-2.934;2022-10-23T07:37:47;8.52;;;2.53;;
75612;SDS011;64198;48.556;-2.934;2022-10-23T07:40:13;8.90;;;1.42;;
75612;SDS011;64198;48.556;-2.934;2022-10-23T07:42:41;8.20;;;1.13;;
75612;SDS011;64198;48.556;-2.934;2022-10-23T07:45:07;6.18;;;1.23;;
75612;SDS011;64198;48.556;-2.934;2022-10-23T19:09:04;256.17;;;130.68;;
75612;SDS011;64198;48.556;-2.934;2022-10-23T19:11:32;188.90;;;96.25;;
75612;SDS011;64198;48.556;-2.934;2022-10-23T19:13:58;205.57;;;98.90;;
75612;SDS011;64198;48.556;-2.934;2022-10-23T19:16:25;130.48;;;60.40;;
75612;SDS011;64198;48.556;-2.934;2022-10-23T19:18:59;64.00;;;27.88;;
75612;SDS011;64198;48.556;-2.934;2022-10-23T19:21:30;46.42;;;17.83;;
75612;SDS011;64198;48.556;-2.934;2022-10-23T19:24:01;24.88;;;8.73;;
75612;SDS011;64198;48.556;-2.934;2022-10-23T19:26:30;20.40;;;6.40;;
75612;SDS011;64198;48.556;-2.934;2022-10-23T19:28:58;13.35;;;3.83;;
75612;SDS011;64198;48.556;-2.934;2022-10-23T19:31:25;16.60;;;4.68;;
75612;SDS011;64198;48.556;-2.934;2022-10-23T19:33:51;8.27;;;1.88;;
75612;SDS011;64198;48.556;-2.934;2022-10-23T19:36:17;6.03;;;1.83;;
75612;SDS011;64198;48.556;-2.934;2022-10-23T19:38:43;9.68;;;1.80;;
75612;SDS011;64198;48.556;-2.934;2022-10-23T19:41:09;9.13;;;1.75;;
75612;SDS011;64198;48.556;-2.934;2022-10-23T19:43:35;6.35;;;1.50;;
75612;SDS011;64198;48.556;-2.934;2022-10-23T19:46:04;6.05;;;1.40;;
75612;SDS011;64198;48.556;-2.934;2022-10-23T19:48:30;6.53;;;1.38;;
75612;SDS011;64198;48.556;-2.934;2022-10-23T19:50:56;4.03;;;0.95;;
75612;SDS011;64198;48.556;-2.934;2022-10-23T19:53:22;8.35;;;1.48;;
75612;SDS011;64198;48.556;-2.934;2022-10-23T19:55:48;4.35;;;1.52;;
75612;SDS011;64198;48.556;-2.934;2022-10-23T19:58:14;7.88;;;1.35;;
75612;SDS011;64198;48.556;-2.934;2022-10-23T20:00:40;4.82;;;1.08;;
75612;SDS011;64198;48.556;-2.934;2022-10-23T20:03:06;6.45;;;1.38;;
75612;SDS011;64198;48.556;-2.934;2022-10-23T20:05:32;4.53;;;0.98;;
75612;SDS011;64198;48.556;-2.934;2022-10-23T20:07:58;4.75;;;1.10;;
75612;SDS011;64198;48.556;-2.934;2022-10-23T20:10:27;5.20;;;1.20;;
75612;SDS011;64198;48.556;-2.934;2022-10-23T20:12:53;4.43;;;0.80;;
75612;SDS011;64198;48.556;-2.934;2022-10-23T20:15:19;4.32;;;1.00;;
75612;SDS011;64198;48.556;-2.934;2022-10-23T20:17:45;6.32;;;1.23;;
75612;SDS011;64198;48.556;-2.934;2022-10-23T20:20:10;6.32;;;1.08;;
75612;SDS011;64198;48.556;-2.934;2022-10-23T20:22:36;4.85;;;1.25;;
75612;SDS011;64198;48.556;-2.934;2022-10-23T20:25:02;5.63;;;1.40;;
75612;SDS011;64198;48.556;-2.934;2022-10-23T20:27:28;9.55;;;1.63;;
75612;SDS011;64198;48.556;-2.934;2022-10-23T20:29:54;4.13;;;1.00;;
75612;SDS011;64198;48.556;-2.934;2022-10-23T20:32:20;5.80;;;0.93;;
75612;SDS011;64198;48.556;-2.934;2022-10-23T20:34:46;1.77;;;0.55;;
75612;SDS011;64198;48.556;-2.934;2022-10-23T20:37:12;4.78;;;1.05;;
75612;SDS011;64198;48.556;-2.934;2022-10-23T20:39:38;2.95;;;0.80;;
75612;SDS011;64198;48.556;-2.934;2022-10-23T20:42:04;5.90;;;0.90;;
75612;SDS011;64198;48.556;-2.934;2022-10-23T20:44:31;7.18;;;1.08;;
75612;SDS011;64198;48.556;-2.934;2022-10-23T20:46:58;5.28;;;0.88;;
75612;SDS011;64198;48.556;-2.934;2022-10-23T20:49:23;4.60;;;0.85;;
75612;SDS011;64198;48.556;-2.934;2022-10-23T20:51:50;5.95;;;1.20;;
75612;SDS011;64198;48.556;-2.934;2022-10-23T20:54:17;4.90;;;0.90;;
75612;SDS011;64198;48.556;-2.934;2022-10-23T20:56:43;6.18;;;1.10;;
75612;SDS011;64198;48.556;-2.934;2022-10-23T20:59:10;6.00;;;1.05;;
75612;SDS011;64198;48.556;-2.934;2022-10-23T21:01:38;4.70;;;0.90;;
75612;SDS011;64198;48.556;-2.934;2022-10-23T21:04:06;5.80;;;0.88;;
75612;SDS011;64198;48.556;-2.934;2022-10-23T21:06:32;5.95;;;1.00;;
75612;SDS011;64198;48.556;-2.934;2022-10-23T21:09:02;3.05;;;0.60;;
75612;SDS011;64198;48.556;-2.934;2022-10-23T21:11:29;3.78;;;0.70;;
75612;SDS011;64198;48.556;-2.934;2022-10-23T21:13:56;4.50;;;1.20;;
75612;SDS011;64198;48.556;-2.934;2022-10-23T21:16:30;8.90;;;1.30;;
75612;SDS011;64198;48.556;-2.934;2022-10-23T21:18:58;5.63;;;1.10;;
75612;SDS011;64198;48.556;-2.934;2022-10-23T21:21:24;6.68;;;0.98;;
75612;SDS011;64198;48.556;-2.934;2022-10-23T21:23:51;4.88;;;1.08;;
75612;SDS011;64198;48.556;-2.934;2022-10-23T21:26:19;5.95;;;0.88;;
75612;SDS011;64198;48.556;-2.934;2022-10-23T21:28:47;5.32;;;0.98;;
75612;SDS011;64198;48.556;-2.934;2022-10-23T21:31:13;5.80;;;1.48;;
75612;SDS011;64198;48.556;-2.934;2022-10-23T21:33:40;6.53;;;1.13;;
75612;SDS011;64198;48.556;-2.934;2022-10-23T21:36:08;4.32;;;0.85;;
75612;SDS011;64198;48.556;-2.934;2022-10-23T21:38:43;3.53;;;0.77;;
75612;SDS011;64198;48.556;-2.934;2022-10-23T21:41:12;5.45;;;0.90;;
75612;SDS011;64198;48.556;-2.934;2022-10-23T21:43:40;4.10;;;0.80;;
75612;SDS011;64198;48.556;-2.934;2022-10-23T21:46:08;5.72;;;0.85;;
75612;SDS011;64198;48.556;-2.934;2022-10-23T21:48:39;2.78;;;0.60;;
75612;SDS011;64198;48.556;-2.934;2022-10-23T21:51:05;6.03;;;1.10;;
75612;SDS011;64198;48.556;-2.934;2022-10-23T21:53:34;30.70;;;15.40;;
75612;SDS011;64198;48.556;-2.934;2022-10-23T21:56:01;23.10;;;11.70;;
75612;SDS011;64198;48.556;-2.934;2022-10-23T21:58:29;18.02;;;7.13;;
75612;SDS011;64198;48.556;-2.934;2022-10-23T22:00:55;9.60;;;2.20;;
75612;SDS011;64198;48.556;-2.934;2022-10-23T22:03:24;11.25;;;1.80;;
75612;SDS011;64198;48.556;-2.934;2022-10-23T22:05:50;6.68;;;1.63;;
75612;SDS011;64198;48.556;-2.934;2022-10-23T22:08:15;4.03;;;1.05;;
75612;SDS011;64198;48.556;-2.934;2022-10-23T22:10:41;6.63;;;1.40;;
75612;SDS011;64198;48.556;-2.934;2022-10-23T22:13:07;12.18;;;2.15;;
75612;SDS011;64198;48.556;-2.934;2022-10-23T22:15:33;9.20;;;1.42;;
75612;SDS011;64198;48.556;-2.934;2022-10-23T22:17:58;6.07;;;1.10;;
75612;SDS011;64198;48.556;-2.934;2022-10-23T22:20:24;5.90;;;1.10;;
75612;SDS011;64198;48.556;-2.934;2022-10-23T22:22:50;3.65;;;1.42;;
75612;SDS011;64198;48.556;-2.934;2022-10-23T22:25:16;7.68;;;1.35;;
75612;SDS011;64198;48.556;-2.934;2022-10-23T22:27:42;6.20;;;1.52;;
75612;SDS011;64198;48.556;-2.934;2022-10-23T22:30:08;115.22;;;63.47;;
75612;SDS011;64198;48.556;-2.934;2022-10-23T22:32:34;94.28;;;49.20;;
75612;SDS011;64198;48.556;-2.934;2022-10-23T22:35:00;47.70;;;23.90;;
75612;SDS011;64198;48.556;-2.934;2022-10-23T22:37:25;44.22;;;20.80;;
75612;SDS011;64198;48.556;-2.934;2022-10-23T22:39:59;48.28;;;22.40;;
75612;SDS011;64198;48.556;-2.934;2022-10-23T22:42:32;9.77;;;2.08;;
75612;SDS011;64198;48.556;-2.934;2022-10-23T22:44:58;6.00;;;1.88;;
75612;SDS011;64198;48.556;-2.934;2022-10-23T22:47:24;8.90;;;2.33;;
75612;SDS011;64198;48.556;-2.934;2022-10-23T22:49:50;3.90;;;1.10;;
75612;SDS011;64198;48.556;-2.934;2022-10-23T22:52:15;7.55;;;1.85;;
75612;SDS011;64198;48.556;-2.934;2022-10-23T22:54:41;4.32;;;1.00;;
75612;SDS011;64198;48.556;-2.934;2022-10-23T22:57:07;6.05;;;0.98;;
75612;SDS011;64198;48.556;-2.934;2022-10-23T22:59:33;6.38;;;1.00;;
75612;SDS011;64198;48.556;-2.934;2022-10-23T23:01:59;5.93;;;0.98;;
75612;SDS011;64198;48.556;-2.934;2022-10-23T23:04:24;5.45;;;1.08;;
75612;SDS011;64198;48.556;-2.934;2022-10-23T23:06:51;4.88;;;1.00;;
75612;SDS011;64198;48.556;-2.934;2022-10-23T23:09:17;6.20;;;1.30;;
75612;SDS011;64198;48.556;-2.934;2022-10-23T23:11:44;5.75;;;0.98;;
75612;SDS011;64198;48.556;-2.934;2022-10-23T23:14:10;5.25;;;1.00;;
75612;SDS011;64198;48.556;-2.934;2022-10-23T23:16:36;3.42;;;0.73;;
75612;SDS011;64198;48.556;-2.934;2022-10-23T23:19:02;5.15;;;0.90;;
75612;SDS011;64198;48.556;-2.934;2022-10-23T23:21:29;4.35;;;0.80;;
75612;SDS011;64198;48.556;-2.934;2022-10-23T23:23:55;4.75;;;1.17;;
75612;SDS011;64198;48.556;-2.934;2022-10-23T23:26:22;4.22;;;0.95;;
75612;SDS011;64198;48.556;-2.934;2022-10-23T23:28:49;5.90;;;1.08;;
75612;SDS011;64198;48.556;-2.934;2022-10-23T23:31:16;6.40;;;1.05;;
75612;SDS011;64198;48.556;-2.934;2022-10-23T23:33:47;3.13;;;0.77;;
75612;SDS011;64198;48.556;-2.934;2022-10-23T23:36:14;7.43;;;1.25;;
75612;SDS011;64198;48.556;-2.934;2022-10-23T23:38:43;3.75;;;0.70;;
75612;SDS011;64198;48.556;-2.934;2022-10-23T23:41:13;5.47;;;1.13;;
75612;SDS011;64198;48.556;-2.934;2022-10-23T23:43:40;6.05;;;0.93;;
75612;SDS011;64198;48.556;-2.934;2022-10-23T23:46:06;5.85;;;0.90;;
75612;SDS011;64198;48.556;-2.934;2022-10-23T23:48:32;3.40;;;0.90;;
75612;SDS011;64198;48.556;-2.934;2022-10-23T23:50:58;3.35;;;0.75;;
75612;SDS011;64198;48.556;-2.934;2022-10-23T23:53:24;4.65;;;1.23;;
75612;SDS011;64198;48.556;-2.934;2022-10-23T23:55:49;5.68;;;1.27;;
75612;SDS011;64198;48.556;-2.934;2022-10-23T23:58:15;10.15;;;1.05;;
